Miles Wright

Chief Scout - Orlando City
10 Dec 2028
Sunday
Process

Personality

Adaptability (3) Ambition (17) Controversy (6) Loyalty (9) Pressure (10) Professionalism (14) Sportsmanship (9) Temperament (4)

Profile

Coaching Style Democratic
License National A
Determination 9
Man Management 7
Motivating 11
Discipline 8
Job Satisfaction
100%
Fatigue
0%
Role Chief Scout
Wage 90.6K p/w
Contract 14.03.2029

Performance

Behaviour Good
Training Effectiveness
44%
Player Development
30%
Injury Prevention
45%
Tactical Implementation
40%

Recent Events

Recommended a transfer target now
Recommended a transfer target now
Recommended a transfer target now
Recommended a transfer target now
Recommended a transfer target now
Recommended a transfer target now
Assessed a player now
Assessed a player now

Currently Monitoring

231
Player Club Status Ability Confidence Watched Last Observed Latest Vote
Tyler Fletcher Rotherham United Active 119 / 128 40% 6 09.12.2028 -
Estanislao López Colón Active 98 / 102 40% 4 09.12.2028 -
Aidan Borland Espanyol Active 112 / 123 40% 1 09.12.2028 -
Honest Ahanor Atalanta Active 142 / 146 40% 14 07.12.2028 -
Celías Ingenthron Platense Active 116 / 127 40% 8 07.12.2028 -
Tiago Gordillo San Miguel Active 87 / 87 40% 3 07.12.2028 -
Joel Ezra Enyimba Active 97 / 100 40% 9 06.12.2028 -
Daniel Banjaqui Benfica Active 129 / 139 40% 3 06.12.2028 -
Peyton Miller New England Revolution Active 116 / 116 40% 6 06.12.2028 -
Ayyoub Bouaddi Stoke City Active 155 / 154 40% 10 05.12.2028 -
Rhys Chadwick Blackpool Active 108 / 115 40% 4 05.12.2028 -
Mateo Faure BATE Active 94 / 102 40% 3 05.12.2028 -
Trey Nyoni Rotherham United Active 147 / 153 40% 15 03.12.2028 -
Diego León Rotherham United Active 130 / 129 40% 7 03.12.2028 -
Francisco Machis Llaneros Active 92 / 97 40% 9 01.12.2028 -
Harrison Armstrong Ipswich Town Active 139 / 142 40% 7 01.12.2028 -
Máximo Munarriz San Telmo Active 95 / 108 40% 7 30.11.2028 -
Sebastian Rodriguez Houston Dynamo Active 115 / 131 40% 9 29.11.2028 -
Jan Cedilnik Chikhura Active 82 / 89 40% 4 29.11.2028 -
Calvin Diakite Chesterfield Active 91 / 102 40% 5 25.11.2028 -
Josh King Newcastle United Active 146 / 158 40% 4 25.11.2028 -
Chris Rigg West Ham United Active 143 / 143 40% 13 24.11.2028 -
Abubakar Adams Aduana Stars Active 89 / 104 40% 6 21.11.2028 -
Riquelme Thompson-Jones Accrington Stanley Active 116 / 117 40% 4 20.11.2028 -
Louis Page Leicester City Active 133 / 141 40% 5 19.11.2028 -
Gideon Manaseh Ikorodu City Active 101 / 109 40% 9 18.11.2028 -
Giovanni Leoni Lincoln City Active 143 / 152 40% 11 18.11.2028 -
Ronan Kpakio AC Milan Active 128 / 131 40% 4 18.11.2028 -
Veljko Milosavljević Bournemouth Active 153 / 158 40% 4 15.11.2028 -
Christos Mouzakitis Hull City Active 143 / 151 40% 4 12.11.2028 -
Aytor Herrera Mineros de Guayana Active 94 / 90 40% 7 12.11.2028 -
Óscar Hinojosa Metropolitanos Active 90 / 87 40% 3 10.11.2028 -
Ezra Mayers West Ham United Active 131 / 133 40% 5 25.10.2028 -
Onyeuche Ujunwa Ikorodu City Active 92 / 98 40% 4 23.10.2028 -
Joachim Kayi Sanda Southampton Active 128 / 133 40% 1 23.10.2028 -
Tobías Ramírez River Plate Active 127 / 124 40% 7 21.10.2028 -
Jim Thwaites Manchester United Active 117 / 124 40% 2 19.10.2028 -
Moses Sesay Southampton Active 116 / 122 40% 2 17.10.2028 -
Lautaro Dufur Juventud Active 109 / 110 40% 3 10.10.2028 -
Felipe Varela Trujillanos Active 94 / 101 40% 5 28.09.2028 -
Nazif Abdullahi Nasarawa United Active 76 / 82 40% 1 26.09.2028 -
Lucas Camejo River Plate Active 80 / 95 40% 6 21.09.2028 -
Connor Yedlin Columbus Crew Rejected 45 / 53 83% 1 / 1m 16.09.2028 Reject
Mark Morris Columbus Crew Rejected 46 / 52 83% 1 / 1m 16.09.2028 Reject
DeAndre Moore Columbus Crew Rejected 57 / 65 83% 1 / 1m 16.09.2028 Reject
Adam Robinson Columbus Crew Rejected 53 / 60 83% 1 / 1m 16.09.2028 Reject
David Tillman Columbus Crew Rejected 43 / 51 83% 1 / 1m 16.09.2028 Reject
Matt Morris Columbus Crew Rejected 41 / 51 83% 1 / 1m 16.09.2028 Reject
Connor Reyna Columbus Crew Rejected 58 / 69 83% 1 / 1m 16.09.2028 Reject
Anderson Acevedo Bogota Active 85 / 100 40% 1 16.09.2028 -
Bade Aluko Leicester City Active 127 / 128 40% 1 07.09.2028 -
Thijs Kraaijeveld USM Alger Active 123 / 120 40% 1 30.08.2028 -
Kwesi Sorotu Badori Berekum Chelsea Active 99 / 102 40% 2 29.08.2028 -
Simone Suppa Virtus Verona Active 87 / 94 40% 1 20.08.2028 -
Ayden Heaven Portsmouth Active 150 / 151 40% 3 17.08.2028 -
Nicolò Moranduzzo Renate Active 100 / 101 40% 1 11.08.2028 -
Kamaldeen Atiemo Wa All Stars Active 103 / 103 40% 2 09.08.2028 -
Hosea Michael Remo Stars Active 93 / 89 40% 2 09.08.2028 -
Miguel Figueiredo Benfica Active 127 / 130 40% 1 09.08.2028 -
Martim Cunha Porto Active 116 / 113 40% 3 31.07.2028 -
Ahmed Zaki Masr El Makasa Negotiating 77 / 88 40% 1 31.07.2028 -
Jan Bürger Northampton Town Active 126 / 127 40% 3 17.07.2028 -
Dmytro Strilchuk Podillia Active 90 / 93 40% 1 06.07.2028 -
Amine Boukamir Charleroi Active 112 / 118 40% 1 05.07.2028 -
Emil Ceïde Bodo/Glimt Active 123 / 124 66% 1 14.02.2028 Approve
Mateusz Kochalski Red Bull Salzburg Active 130 / 130 66% 1 14.02.2028 Approve
Alexandru Stanciu Braga Active 138 / 138 66% 1 14.02.2028 Approve
Ben Broggio Mansfield Town Active 109 / 118 40% 2 13.02.2028 -
Josh Nichols Oldham Athletic Active 123 / 128 40% 4 12.02.2028 -
Amin Nabizada Exeter City Active 106 / 120 40% 1 12.02.2028 -
Babis Kostoulas Oxford United Active 146 / 142 40% 3 10.02.2028 -
Romelle Donovan Brentford Active 131 / 135 40% 3 10.02.2028 -
Leo Pecover Swindon Town Active 96 / 102 40% 1 10.02.2028 -
Siyabonga Mabena Bidvest Wits Active 117 / 122 40% 4 09.02.2028 -
Josh Acheampong Everton Active 138 / 142 40% 3 09.02.2028 -
Nana Nuhu WAFA Active 101 / 108 40% 2 09.02.2028 -
Ryan McAidoo Oldham Athletic Active 124 / 137 40% 1 07.02.2028 -
Ruben Ramos LA Galaxy Active 101 / 101 40% 1 04.02.2028 -
Omar Khedr Gillingham Active 108 / 112 40% 1 04.02.2028 -
Sindre Walle Egeli Udinese Active 142 / 137 40% 3 03.02.2028 -
Lwanda Mbanjwa Platinum Stars Active 106 / 108 40% 1 03.02.2028 -
Igor Tyjon Barrow AFC Active 108 / 121 40% 3 01.02.2028 -
Esquerdinha Notts County Active 121 / 131 40% 5 31.01.2028 -
Rio Ngumoha Plymouth Argyle Active 142 / 149 40% 2 31.01.2028 -
Luca Williams-Barnett Walsall Active 118 / 137 40% 3 28.01.2028 -
Shea Lacey Crystal Palace Active 131 / 138 40% 1 26.01.2028 -
Alex Verón Vélez Active 121 / 130 40% 3 25.01.2028 -
Pedro Baltika Active 147 / 130 40% 1 25.01.2028 -
Matías Arias Vélez Active 113 / 124 40% 1 25.01.2028 -
Bazoumana Touré Newcastle United Active 147 / 155 40% 3 21.01.2028 -
Oscar Schwartau Norwich City Active 126 / 130 40% 2 17.01.2028 -
Eli Junior Kroupi Bournemouth Active 144 / 155 40% 1 10.01.2028 -
Mateus Mané Burnley Active 138 / 146 40% 2 08.01.2028 -
Jeremías Merlo Gimnasia La Plata Active 128 / 127 40% 1 08.01.2028 -
Gabe Forsyth Colchester United Active 109 / 121 40% 1 06.01.2028 -
Valentino Acuña Newell's Old Boys Active 117 / 123 40% 1 06.01.2028 -
Seb Ferdinand Rotherham United Active 113 / 118 40% 1 02.01.2028 -
Emmanuel Ndubueze Shooting Stars Active 86 / 105 40% 1 01.01.2028 -
Matias Siltanen Malmo FF Active 126 / 121 40% 6 25.12.2027 -
Daniel Idoko Ikorodu City Active 99 / 84 40% 2 24.12.2027 -
Caleb Yirenkyi Coventry City Active 136 / 147 40% 1 24.12.2027 -
Victor Hernandez Santa Fe Active 114 / 129 40% 3 23.12.2027 -
Olaniyi Saheed Kwara United Active 95 / 93 40% 1 23.12.2027 -
David Damboama El-Kanemi Warriors Active 84 / 91 40% 4 22.12.2027 -
Lucas Bergvall Tottenham Active 153 / 162 40% 2 22.12.2027 -
Charlie Gray Fleetwood Town Active 95 / 108 40% 1 22.12.2027 -
Archie Gray Southampton Active 150 / 152 40% 2 19.12.2027 -
Zane Albarus Shrewsbury Town Active 104 / 106 40% 2 13.12.2027 -
Antonio Galeano Remo Stars Active 120 / 116 40% 7 08.12.2027 -
Liel Abada Inter Miami CF Active 135 / 144 40% 3 08.12.2027 -
Manuel Mónaco Sarmiento Active 114 / 123 40% 4 05.12.2027 -
Santiago Montiel Independiente Active 126 / 120 40% 2 05.12.2027 -
Talles Magno New York City Active 135 / 126 40% 9 02.12.2027 -
Alexis Cuello San Lorenzo Active 129 / 117 40% 1 30.11.2027 -
Aarón Molinas Defensa y Justicia Active 133 / 116 40% 1 30.11.2027 -
Antony Portland Timbers Active 131 / 132 40% 4 25.11.2027 -
Facundo Mura Inter Miami CF Active 128 / 132 40% 4 25.11.2027 -
Brian Farioli Estudiantes Active 112 / 116 40% 5 25.11.2027 -
Ben Gannon Doak Charlton Athletic Active 150 / 148 40% 3 23.11.2027 -
Quinn Sullivan Philadelphia Union Active 126 / 119 40% 4 21.11.2027 -
David Da Costa Portland Timbers Active 129 / 129 40% 5 15.11.2027 -
Alex Luna Instituto Active 131 / 131 40% 1 14.11.2027 -
Luca Langoni Columbus Crew Active 132 / 140 40% 2 13.11.2027 -
Esteban Obregón Montevideo City Torque Active 130 / 127 40% 2 13.11.2027 -
Cheikh Sabaly Vancouver Whitecaps Active 127 / 128 40% 4 11.11.2027 -
Adrian Skogmar Malmo FF Active 105 / 122 40% 1 10.11.2027 -
Telasco Segovia Inter Miami CF Active 138 / 129 40% 6 09.11.2027 -
Imran Oulad Omar Dinamo Batumi Active 122 / 132 40% 4 07.11.2027 -
Jesus Ferreira Seattle Sounders Active 130 / 132 40% 4 02.11.2027 -
Somtochuwku Ezenabo Kwara United Active 92 / 87 40% 1 27.10.2027 -
Rhys Walters Port Vale Active 107 / 120 40% 1 26.10.2027 -
Rodrigo González Mitre Active 117 / 126 40% 3 22.10.2027 -
Bénie Traoré New York City Active 123 / 121 40% 3 14.10.2027 -
Juan Bisanz Huracán Active 138 / 136 40% 4 13.10.2027 -
José Barreto Quilmes Active 125 / 114 40% 1 12.10.2027 -
Alejo Cruz Juventud Active 114 / 130 40% 1 09.10.2027 -
Issa Yusuf Shooting Stars Active 86 / 88 40% 1 09.10.2027 -
Ivan Borges Defensores Active 74 / 78 40% 1 09.10.2027 -
Franco Vedoya Central Norte Active 120 / 125 40% 2 05.10.2027 -
Giorgi Arabidze Torpedo Kutaisi Active 110 / 119 40% 1 02.10.2027 -
Morgan Guilavogui Real Salt Lake Active 126 / 127 40% 1 29.09.2027 -
Anders Dreyer San Diego Football Club Active 135 / 127 40% 2 25.09.2027 -
Patricio Moyano Defensores Active 129 / 117 40% 2 18.09.2027 -
Luka Vušković Tottenham Active 150 / 151 40% 1 18.09.2027 -
Bruno Leyes Godoy Cruz Active 135 / 125 40% 1 16.09.2027 -
Jonás Luna Wanderers Active 116 / 128 40% 1 14.09.2027 -
Godwin Oham Warri Wolves Active 85 / 83 40% 1 14.09.2027 -
Malick Yalcouyé Brighton Active 132 / 129 40% 1 14.09.2027 -
Santiago Rodríguez Columbus Crew Active 136 / 132 40% 2 12.09.2027 -
Martín Campos Ferro Carril Oeste Active 114 / 127 40% 1 12.09.2027 -
Zane Monlouis Toronto FC Active 96 / 107 76% 1 19.07.2027 Approve
Johannes Eggestein Orlando City Active 125 / 125 68% 1 08.07.2027 Approve
Oleh Ocheretko FC Dallas Active 129 / 131 67% 1 08.07.2027 Approve
Alex Scott Bournemouth Active 147 / 145 40% 1 16.02.2027 -
Callum Hudson-Odoi Nottingham Forest Active 151 / 154 40% 1 16.02.2027 -
Harry Clarke Preston Active 132 / 126 40% 1 16.02.2027 -
Joe Gelhardt Hull City Active 132 / 137 40% 2 13.02.2027 -
Tomáš Rigo Stoke City Active 137 / 126 40% 1 12.02.2027 -
Mohamed-Ali Cho Hull City Active 141 / 129 40% 1 12.02.2027 -
Chemsdine Talbi Sunderland Active 148 / 148 40% 1 12.02.2027 -
Amine Adli Bournemouth Active 139 / 143 40% 2 11.02.2027 -
Matt O'Riley Brighton Active 139 / 147 40% 1 11.02.2027 -
David Ozoh Derby County Active 117 / 131 40% 1 11.02.2027 -
Bongani Zungu Ajax Cape Town Active 123 / 121 40% 3 09.02.2027 -
Jacob Greaves Ipswich Town Active 137 / 131 40% 1 09.02.2027 -
Juanlu Bournemouth Active 150 / 144 40% 1 09.02.2027 -
Amin Sarr Hellas Verona Active 126 / 126 40% 2 06.02.2027 -
Nicolò Zaniolo Udinese Active 147 / 138 40% 2 06.02.2027 -
Kirill Glebov CSKA Moscow Active 120 / 140 40% 4 05.02.2027 -
Ilyas Ansah Hull City Active 127 / 137 40% 1 05.02.2027 -
Danilo Veiga Lecce Active 119 / 121 40% 1 05.02.2027 -
Maicon Levski Active 123 / 117 40% 1 05.02.2027 -
Pedro Henrique Shakhtar Active 144 / 129 40% 1 04.02.2027 -
Alex Bangura Middlesbrough Active 130 / 119 40% 1 04.02.2027 -
Billy Gilmour Napoli Active 152 / 150 40% 1 01.02.2027 -
Odilon Kossounou Atalanta Active 146 / 147 40% 1 31.01.2027 -
Tommaso Pobega Bologna Active 142 / 132 40% 1 31.01.2027 -
Sergey Pinyaev Lokomotiv Moscow Active 121 / 138 40% 2 28.01.2027 -
Marquinhos Spartak Moscow Active 131 / 134 40% 10 28.01.2027 -
Raoul Bellanova Atalanta Active 151 / 155 40% 3 28.01.2027 -
Nazar Voloshyn Dynamo Kyiv Active 124 / 120 40% 1 23.01.2027 -
Álex Centelles Levski Active 131 / 120 40% 1 22.01.2027 -
Alessio Zerbin Frosinone Active 138 / 134 40% 2 21.01.2027 -
Marcelo Allende Mamelodi Sundowns Active 140 / 126 40% 4 20.01.2027 -
Giacomo Raspadori Atalanta Active 144 / 152 40% 1 20.01.2027 -
Petar Stanić Ludogorets Active 147 / 123 40% 12 19.01.2027 -
Martin Baturina Como Active 138 / 134 40% 1 15.01.2027 -
Esequiel Barco Spartak Moscow Active 133 / 143 40% 2 09.01.2027 -
Reda Khadra Qarabag Active 129 / 124 40% 6 08.01.2027 -
Manu Morlanes Mallorca Active 143 / 140 40% 4 31.12.2026 -
Tyrhys Dolan Espanyol Active 143 / 137 40% 6 31.12.2026 -
Jens Petter Hauge Bodo/Glimt Active 138 / 144 40% 6 30.12.2026 -
Jay Stansfield Birmingham Active 131 / 129 40% 2 28.12.2026 -
Mathys Tel Tottenham Active 138 / 149 40% 4 27.12.2026 -
Gedson Fernandes Spartak Moscow Active 136 / 146 40% 4 26.12.2026 -
Danil Glebov Dinamo Moscow Active 129 / 136 40% 3 26.12.2026 -
Aldair Faustino Levski Active 117 / 118 40% 1 22.12.2026 -
Arne Maier Ujpest Active 119 / 122 40% 1 21.12.2026 -
Femi Seriki Sheffield United Active 125 / 135 40% 1 21.12.2026 -
Harvey Vale Queens Park Rangers Active 125 / 119 40% 1 17.12.2026 -
Nikita Krivtsov Krasnodar Active 133 / 141 40% 1 17.12.2026 -
Alexandr Chernikov Krasnodar Active 126 / 121 40% 2 16.12.2026 -
Maxim De Cuyper Brighton Active 136 / 144 40% 3 15.12.2026 -
James Eto'o CSKA Sofia Active 134 / 126 40% 1 09.12.2026 -
Oliver Arblaster Sheffield United Active 129 / 125 40% 1 09.12.2026 -
Ammar Ramadan DAC Dunajska Streda Active 136 / 110 40% 1 09.12.2026 -
Wilson Odobert Brighton Active 145 / 136 40% 1 27.11.2026 -
Odin Bjørtuft Bodo/Glimt Active 138 / 120 40% 1 03.11.2026 -
Diego Gómez Brighton Active 141 / 151 40% 4 01.11.2026 -
Diego Luna Real Salt Lake Active 124 / 122 40% 2 01.11.2026 -
Joaquín Pereyra Minnesota United FC Active 127 / 127 40% 1 23.10.2026 -
Ole-Didrik Blomberg Bodo/Glimt Active 135 / 118 40% 1 13.10.2026 -
Rubens Dinamo Moscow Active 120 / 132 40% 1 10.10.2026 -
Andrés Herrera Columbus Crew Active 129 / 119 40% 2 07.10.2026 -
Nicolás Romero Minnesota United FC Active 126 / 138 40% 3 06.10.2026 -
Gonzalo Luján Inter Miami CF Active 124 / 115 40% 2 06.10.2026 -
Ho-yeon Jung Minnesota United FC Active 128 / 116 40% 2 05.10.2026 -
Emil Breivik Molde Active 136 / 135 40% 2 05.10.2026 -
Lukas Engel Real Salt Lake Active 120 / 121 40% 2 25.09.2026 -
Rui Modesto Vancouver Whitecaps Active 119 / 114 40% 2 25.09.2026 -
Cole Bassett Portland Timbers Active 127 / 113 40% 2 19.09.2026 -
Tomáš Nemčík Rosenborg Active 131 / 131 40% 1 19.09.2026 -
Iliya Gruev Leeds United Active 124 / 129 40% 1 19.09.2026 -
Japhet Sery Larsen Philadelphia Union Active 128 / 125 40% 1 18.09.2026 -
Juan Manuel Sanabria Real Salt Lake Active 126 / 125 40% 2 17.09.2026 -
Juan Mosquera Portland Timbers Active 121 / 132 40% 1 17.09.2026 -
Lucas Sanabria LA Galaxy Active 123 / 132 40% 1 16.09.2026 -
Jordan Lotomba Bloemfontein Celtic Active 113 / 124 40% 1 14.09.2026 -
Owen Beck Liverpool Active 126 / 131 40% 1 14.09.2026 -
Nectar Triantis Minnesota United FC Active 127 / 130 40% 1 13.09.2026 -
Alhassan Yusuf New England Revolution Active 125 / 134 40% 1 12.09.2026 -